Terminal Aerodrome Forecast
Issued by NWS Sterling, VA

Current Version | Previous Version | Text Only | Print | Product List | Glossary Off
Versions: 1 2 3 4 5 6 7 8 9 10 11 12 13 14 15 16 17 18 19 20

000
FTUS41 KLWX 170536
TAFMRB
TAF
KMRB 170536Z 1706/1806 00000KT 3SM BR SCT080
     FM170900 00000KT 1SM BR BKN080
     FM171200 00000KT 2SM BR BKN070
     FM171500 VRB03KT P6SM BKN060
     FM171900 10004KT P6SM SCT035
     FM180300 00000KT 4SM BR FEW040=

USA.gov is the U.S. government's official web portal to all federal, state and local government web resources and services.